sensor_id;sensor_type;location;lat;lon;timestamp;P1;durP1;ratioP1;P2;durP2;ratioP2
61702;SDS011;47622;47.726;3.298;2022-11-20T00:00:02;7.78;;;5.03;;
61702;SDS011;47622;47.726;3.298;2022-11-20T00:02:29;9.35;;;5.20;;
61702;SDS011;47622;47.726;3.298;2022-11-20T00:04:54;9.88;;;4.97;;
61702;SDS011;47622;47.726;3.298;2022-11-20T00:07:20;9.32;;;4.85;;
61702;SDS011;47622;47.726;3.298;2022-11-20T00:09:46;9.63;;;4.38;;
61702;SDS011;47622;47.726;3.298;2022-11-20T00:12:11;9.18;;;4.28;;
61702;SDS011;47622;47.726;3.298;2022-11-20T00:14:37;6.97;;;3.85;;
61702;SDS011;47622;47.726;3.298;2022-11-20T00:17:03;9.10;;;4.38;;
61702;SDS011;47622;47.726;3.298;2022-11-20T00:19:29;7.28;;;4.15;;
61702;SDS011;47622;47.726;3.298;2022-11-20T00:21:54;10.05;;;3.80;;
61702;SDS011;47622;47.726;3.298;2022-11-20T00:24:20;11.02;;;4.55;;
61702;SDS011;47622;47.726;3.298;2022-11-20T00:26:46;6.80;;;4.00;;
61702;SDS011;47622;47.726;3.298;2022-11-20T00:29:12;4.70;;;3.42;;
61702;SDS011;47622;47.726;3.298;2022-11-20T00:31:37;10.52;;;4.18;;
61702;SDS011;47622;47.726;3.298;2022-11-20T00:34:03;7.85;;;3.72;;
61702;SDS011;47622;47.726;3.298;2022-11-20T00:36:31;6.15;;;3.78;;
61702;SDS011;47622;47.726;3.298;2022-11-20T00:38:58;8.65;;;4.30;;
61702;SDS011;47622;47.726;3.298;2022-11-20T00:41:25;8.07;;;4.03;;
61702;SDS011;47622;47.726;3.298;2022-11-20T00:43:53;6.82;;;3.78;;
61702;SDS011;47622;47.726;3.298;2022-11-20T00:46:20;7.10;;;4.30;;
61702;SDS011;47622;47.726;3.298;2022-11-20T00:48:48;8.10;;;4.43;;
61702;SDS011;47622;47.726;3.298;2022-11-20T00:51:15;12.82;;;5.30;;
61702;SDS011;47622;47.726;3.298;2022-11-20T00:53:43;12.68;;;5.45;;
61702;SDS011;47622;47.726;3.298;2022-11-20T00:56:11;17.45;;;5.53;;
61702;SDS011;47622;47.726;3.298;2022-11-20T00:58:39;7.90;;;4.38;;
61702;SDS011;47622;47.726;3.298;2022-11-20T01:01:07;12.07;;;4.13;;
61702;SDS011;47622;47.726;3.298;2022-11-20T01:03:41;9.88;;;4.30;;
61702;SDS011;47622;47.726;3.298;2022-11-20T01:06:13;8.90;;;4.28;;
61702;SDS011;47622;47.726;3.298;2022-11-20T01:08:41;8.83;;;4.03;;
61702;SDS011;47622;47.726;3.298;2022-11-20T01:11:11;8.52;;;3.60;;
61702;SDS011;47622;47.726;3.298;2022-11-20T01:13:38;8.07;;;3.78;;
61702;SDS011;47622;47.726;3.298;2022-11-20T01:16:15;10.10;;;3.80;;
61702;SDS011;47622;47.726;3.298;2022-11-20T01:18:44;9.75;;;4.00;;
61702;SDS011;47622;47.726;3.298;2022-11-20T01:21:12;10.20;;;3.80;;
61702;SDS011;47622;47.726;3.298;2022-11-20T01:23:41;9.23;;;3.80;;
61702;SDS011;47622;47.726;3.298;2022-11-20T01:26:12;8.30;;;4.20;;
61702;SDS011;47622;47.726;3.298;2022-11-20T01:28:40;7.95;;;3.88;;
61702;SDS011;47622;47.726;3.298;2022-11-20T01:31:11;8.25;;;3.70;;
61702;SDS011;47622;47.726;3.298;2022-11-20T01:33:45;9.02;;;3.65;;
61702;SDS011;47622;47.726;3.298;2022-11-20T01:36:12;7.10;;;4.00;;
61702;SDS011;47622;47.726;3.298;2022-11-20T01:38:39;7.68;;;4.30;;
61702;SDS011;47622;47.726;3.298;2022-11-20T01:41:05;11.85;;;3.72;;
61702;SDS011;47622;47.726;3.298;2022-11-20T01:43:32;6.35;;;3.92;;
61702;SDS011;47622;47.726;3.298;2022-11-20T01:46:14;10.88;;;3.53;;
61702;SDS011;47622;47.726;3.298;2022-11-20T01:51:21;11.45;;;4.32;;
61702;SDS011;47622;47.726;3.298;2022-11-20T01:53:48;8.57;;;4.10;;
61702;SDS011;47622;47.726;3.298;2022-11-20T01:56:15;9.50;;;3.90;;
61702;SDS011;47622;47.726;3.298;2022-11-20T01:58:44;8.35;;;4.38;;
61702;SDS011;47622;47.726;3.298;2022-11-20T02:01:13;9.38;;;4.38;;
61702;SDS011;47622;47.726;3.298;2022-11-20T02:03:39;11.20;;;3.67;;
61702;SDS011;47622;47.726;3.298;2022-11-20T02:09:15;6.03;;;3.60;;
61702;SDS011;47622;47.726;3.298;2022-11-20T02:11:41;8.73;;;3.60;;
61702;SDS011;47622;47.726;3.298;2022-11-20T02:14:07;6.63;;;3.63;;
61702;SDS011;47622;47.726;3.298;2022-11-20T02:16:35;9.88;;;4.03;;
61702;SDS011;47622;47.726;3.298;2022-11-20T02:19:04;11.68;;;4.05;;
61702;SDS011;47622;47.726;3.298;2022-11-20T02:21:43;10.35;;;3.78;;
61702;SDS011;47622;47.726;3.298;2022-11-20T02:24:15;7.47;;;4.55;;
61702;SDS011;47622;47.726;3.298;2022-11-20T02:27:01;9.68;;;4.50;;
61702;SDS011;47622;47.726;3.298;2022-11-20T02:32:04;12.05;;;4.70;;
61702;SDS011;47622;47.726;3.298;2022-11-20T02:34:30;11.93;;;4.90;;
61702;SDS011;47622;47.726;3.298;2022-11-20T02:36:57;10.80;;;5.07;;
61702;SDS011;47622;47.726;3.298;2022-11-20T02:39:24;8.70;;;4.40;;
61702;SDS011;47622;47.726;3.298;2022-11-20T02:41:55;8.05;;;4.68;;
61702;SDS011;47622;47.726;3.298;2022-11-20T02:44:22;8.90;;;5.15;;
61702;SDS011;47622;47.726;3.298;2022-11-20T02:46:47;9.25;;;5.80;;
61702;SDS011;47622;47.726;3.298;2022-11-20T02:49:13;7.28;;;4.45;;
61702;SDS011;47622;47.726;3.298;2022-11-20T02:51:39;9.65;;;4.55;;
61702;SDS011;47622;47.726;3.298;2022-11-20T02:54:04;7.55;;;4.47;;
61702;SDS011;47622;47.726;3.298;2022-11-20T02:56:30;7.85;;;4.70;;
61702;SDS011;47622;47.726;3.298;2022-11-20T02:58:56;8.88;;;4.00;;
61702;SDS011;47622;47.726;3.298;2022-11-20T03:01:21;6.80;;;3.90;;
61702;SDS011;47622;47.726;3.298;2022-11-20T03:03:47;5.88;;;3.83;;
61702;SDS011;47622;47.726;3.298;2022-11-20T03:06:17;5.60;;;3.80;;
61702;SDS011;47622;47.726;3.298;2022-11-20T03:08:43;4.07;;;3.40;;
61702;SDS011;47622;47.726;3.298;2022-11-20T03:11:09;4.82;;;3.15;;
61702;SDS011;47622;47.726;3.298;2022-11-20T03:13:35;5.28;;;4.45;;
61702;SDS011;47622;47.726;3.298;2022-11-20T03:16:07;5.43;;;4.18;;
61702;SDS011;47622;47.726;3.298;2022-11-20T03:18:35;4.70;;;3.88;;
61702;SDS011;47622;47.726;3.298;2022-11-20T03:21:01;4.97;;;3.58;;
61702;SDS011;47622;47.726;3.298;2022-11-20T03:23:28;5.05;;;3.60;;
61702;SDS011;47622;47.726;3.298;2022-11-20T03:25:55;5.40;;;3.47;;
61702;SDS011;47622;47.726;3.298;2022-11-20T03:28:21;6.80;;;3.78;;
61702;SDS011;47622;47.726;3.298;2022-11-20T03:30:47;7.10;;;3.72;;
61702;SDS011;47622;47.726;3.298;2022-11-20T03:33:12;6.95;;;4.15;;
61702;SDS011;47622;47.726;3.298;2022-11-20T03:35:38;10.88;;;4.35;;
61702;SDS011;47622;47.726;3.298;2022-11-20T03:38:03;7.45;;;4.30;;
61702;SDS011;47622;47.726;3.298;2022-11-20T03:40:29;8.60;;;4.00;;
61702;SDS011;47622;47.726;3.298;2022-11-20T03:42:55;9.07;;;3.85;;
61702;SDS011;47622;47.726;3.298;2022-11-20T03:45:20;8.00;;;3.42;;
61702;SDS011;47622;47.726;3.298;2022-11-20T03:47:46;7.82;;;4.15;;
61702;SDS011;47622;47.726;3.298;2022-11-20T03:50:12;6.78;;;3.55;;
61702;SDS011;47622;47.726;3.298;2022-11-20T03:52:39;7.13;;;3.60;;
61702;SDS011;47622;47.726;3.298;2022-11-20T03:55:05;7.85;;;4.32;;
61702;SDS011;47622;47.726;3.298;2022-11-20T03:57:31;8.55;;;3.45;;
61702;SDS011;47622;47.726;3.298;2022-11-20T03:59:57;6.40;;;3.70;;
61702;SDS011;47622;47.726;3.298;2022-11-20T04:02:23;6.30;;;3.35;;
61702;SDS011;47622;47.726;3.298;2022-11-20T04:04:48;5.15;;;3.30;;
61702;SDS011;47622;47.726;3.298;2022-11-20T04:07:14;4.57;;;3.08;;
61702;SDS011;47622;47.726;3.298;2022-11-20T04:09:40;6.50;;;3.35;;
61702;SDS011;47622;47.726;3.298;2022-11-20T04:12:06;6.82;;;3.28;;
61702;SDS011;47622;47.726;3.298;2022-11-20T04:14:31;5.50;;;3.40;;
61702;SDS011;47622;47.726;3.298;2022-11-20T04:16:57;3.35;;;3.00;;
61702;SDS011;47622;47.726;3.298;2022-11-20T04:19:23;5.47;;;3.35;;
61702;SDS011;47622;47.726;3.298;2022-11-20T04:21:48;6.75;;;3.65;;
61702;SDS011;47622;47.726;3.298;2022-11-20T04:24:14;7.25;;;3.53;;
61702;SDS011;47622;47.726;3.298;2022-11-20T04:26:40;8.57;;;4.18;;
61702;SDS011;47622;47.726;3.298;2022-11-20T04:29:05;7.10;;;3.30;;
61702;SDS011;47622;47.726;3.298;2022-11-20T04:31:32;5.55;;;3.30;;
61702;SDS011;47622;47.726;3.298;2022-11-20T04:34:00;5.53;;;3.30;;
61702;SDS011;47622;47.726;3.298;2022-11-20T04:36:27;9.00;;;4.00;;
61702;SDS011;47622;47.726;3.298;2022-11-20T04:38:54;7.00;;;3.53;;
61702;SDS011;47622;47.726;3.298;2022-11-20T04:41:23;6.25;;;3.70;;
61702;SDS011;47622;47.726;3.298;2022-11-20T04:43:51;7.65;;;4.05;;
61702;SDS011;47622;47.726;3.298;2022-11-20T04:46:19;12.13;;;4.20;;
61702;SDS011;47622;47.726;3.298;2022-11-20T04:48:46;11.15;;;4.78;;
61702;SDS011;47622;47.726;3.298;2022-11-20T04:51:12;7.45;;;4.20;;
61702;SDS011;47622;47.726;3.298;2022-11-20T04:53:38;7.20;;;4.30;;
61702;SDS011;47622;47.726;3.298;2022-11-20T04:56:06;8.52;;;4.13;;
61702;SDS011;47622;47.726;3.298;2022-11-20T04:58:33;7.57;;;4.30;;
61702;SDS011;47622;47.726;3.298;2022-11-20T05:01:12;4.88;;;3.83;;
61702;SDS011;47622;47.726;3.298;2022-11-20T05:06:09;9.50;;;4.07;;
61702;SDS011;47622;47.726;3.298;2022-11-20T05:08:36;8.70;;;3.90;;
61702;SDS011;47622;47.726;3.298;2022-11-20T05:11:03;6.80;;;3.60;;
61702;SDS011;47622;47.726;3.298;2022-11-20T05:13:30;5.90;;;3.45;;
61702;SDS011;47622;47.726;3.298;2022-11-20T05:16:00;6.70;;;4.35;;
61702;SDS011;47622;47.726;3.298;2022-11-20T05:18:30;7.72;;;4.55;;
61702;SDS011;47622;47.726;3.298;2022-11-20T05:20:56;8.32;;;4.05;;
61702;SDS011;47622;47.726;3.298;2022-11-20T05:23:23;7.38;;;3.53;;
61702;SDS011;47622;47.726;3.298;2022-11-20T05:25:51;6.45;;;3.67;;
61702;SDS011;47622;47.726;3.298;2022-11-20T05:28:18;9.88;;;4.07;;
61702;SDS011;47622;47.726;3.298;2022-11-20T05:30:44;9.23;;;3.70;;
61702;SDS011;47622;47.726;3.298;2022-11-20T05:33:09;4.75;;;3.88;;
61702;SDS011;47622;47.726;3.298;2022-11-20T05:35:35;11.23;;;6.75;;
61702;SDS011;47622;47.726;3.298;2022-11-20T05:38:00;6.93;;;4.38;;
61702;SDS011;47622;47.726;3.298;2022-11-20T05:40:26;7.03;;;3.83;;
61702;SDS011;47622;47.726;3.298;2022-11-20T05:42:52;10.05;;;5.53;;
61702;SDS011;47622;47.726;3.298;2022-11-20T05:45:17;11.50;;;5.63;;
61702;SDS011;47622;47.726;3.298;2022-11-20T05:47:43;7.97;;;4.95;;
61702;SDS011;47622;47.726;3.298;2022-11-20T05:50:08;9.55;;;5.00;;
61702;SDS011;47622;47.726;3.298;2022-11-20T05:52:34;9.77;;;4.82;;
61702;SDS011;47622;47.726;3.298;2022-11-20T05:55:00;8.32;;;4.93;;
61702;SDS011;47622;47.726;3.298;2022-11-20T05:57:25;10.20;;;4.65;;
61702;SDS011;47622;47.726;3.298;2022-11-20T05:59:51;6.30;;;4.55;;
61702;SDS011;47622;47.726;3.298;2022-11-20T06:02:17;8.05;;;4.35;;
61702;SDS011;47622;47.726;3.298;2022-11-20T06:04:42;10.55;;;5.05;;
61702;SDS011;47622;47.726;3.298;2022-11-20T06:07:08;13.32;;;5.13;;
61702;SDS011;47622;47.726;3.298;2022-11-20T06:09:34;7.70;;;4.68;;
61702;SDS011;47622;47.726;3.298;2022-11-20T06:11:59;7.30;;;4.97;;
61702;SDS011;47622;47.726;3.298;2022-11-20T06:14:25;8.50;;;5.93;;
61702;SDS011;47622;47.726;3.298;2022-11-20T06:16:51;10.77;;;6.30;;
61702;SDS011;47622;47.726;3.298;2022-11-20T06:19:16;8.77;;;5.32;;
61702;SDS011;47622;47.726;3.298;2022-11-20T06:21:42;9.48;;;5.70;;
61702;SDS011;47622;47.726;3.298;2022-11-20T06:24:11;9.38;;;5.35;;
61702;SDS011;47622;47.726;3.298;2022-11-20T06:26:37;8.48;;;5.93;;
61702;SDS011;47622;47.726;3.298;2022-11-20T06:29:02;9.07;;;6.00;;
61702;SDS011;47622;47.726;3.298;2022-11-20T06:31:28;12.73;;;7.95;;
61702;SDS011;47622;47.726;3.298;2022-11-20T06:33:54;10.93;;;7.30;;
61702;SDS011;47622;47.726;3.298;2022-11-20T06:36:20;9.90;;;7.00;;
61702;SDS011;47622;47.726;3.298;2022-11-20T06:38:47;9.75;;;7.03;;
61702;SDS011;47622;47.726;3.298;2022-11-20T06:41:15;8.15;;;6.30;;
61702;SDS011;47622;47.726;3.298;2022-11-20T06:43:42;9.55;;;5.63;;
61702;SDS011;47622;47.726;3.298;2022-11-20T06:46:09;11.07;;;7.15;;
61702;SDS011;47622;47.726;3.298;2022-11-20T06:48:39;9.00;;;6.07;;
61702;SDS011;47622;47.726;3.298;2022-11-20T06:51:06;11.15;;;6.82;;
61702;SDS011;47622;47.726;3.298;2022-11-20T06:53:33;10.30;;;6.78;;
61702;SDS011;47622;47.726;3.298;2022-11-20T06:55:59;10.73;;;7.10;;
61702;SDS011;47622;47.726;3.298;2022-11-20T06:58:28;8.65;;;6.22;;
61702;SDS011;47622;47.726;3.298;2022-11-20T07:01:00;9.93;;;6.80;;
61702;SDS011;47622;47.726;3.298;2022-11-20T07:05:56;10.48;;;6.75;;
61702;SDS011;47622;47.726;3.298;2022-11-20T07:08:23;12.93;;;7.25;;
61702;SDS011;47622;47.726;3.298;2022-11-20T07:10:50;9.38;;;6.40;;
61702;SDS011;47622;47.726;3.298;2022-11-20T07:13:15;12.38;;;7.78;;
61702;SDS011;47622;47.726;3.298;2022-11-20T07:15:41;19.25;;;7.07;;
61702;SDS011;47622;47.726;3.298;2022-11-20T07:18:07;11.32;;;6.25;;
61702;SDS011;47622;47.726;3.298;2022-11-20T07:20:32;8.88;;;6.43;;
61702;SDS011;47622;47.726;3.298;2022-11-20T07:22:58;9.32;;;6.70;;
61702;SDS011;47622;47.726;3.298;2022-11-20T07:25:27;11.82;;;6.65;;
61702;SDS011;47622;47.726;3.298;2022-11-20T07:28:00;10.70;;;7.03;;
61702;SDS011;47622;47.726;3.298;2022-11-20T07:30:26;13.95;;;6.88;;
61702;SDS011;47622;47.726;3.298;2022-11-20T07:32:52;11.80;;;7.68;;
61702;SDS011;47622;47.726;3.298;2022-11-20T07:35:18;11.05;;;7.05;;
61702;SDS011;47622;47.726;3.298;2022-11-20T07:37:44;10.18;;;6.80;;
61702;SDS011;47622;47.726;3.298;2022-11-20T07:40:11;9.57;;;6.13;;
61702;SDS011;47622;47.726;3.298;2022-11-20T07:42:38;9.40;;;6.28;;
61702;SDS011;47622;47.726;3.298;2022-11-20T07:45:04;9.45;;;7.00;;
61702;SDS011;47622;47.726;3.298;2022-11-20T07:47:34;14.88;;;6.93;;
61702;SDS011;47622;47.726;3.298;2022-11-20T07:52:28;10.30;;;6.30;;
61702;SDS011;47622;47.726;3.298;2022-11-20T07:54:54;9.43;;;6.55;;
61702;SDS011;47622;47.726;3.298;2022-11-20T07:57:19;11.05;;;7.22;;
61702;SDS011;47622;47.726;3.298;2022-11-20T07:59:45;10.30;;;6.47;;
61702;SDS011;47622;47.726;3.298;2022-11-20T08:02:11;8.13;;;5.72;;
61702;SDS011;47622;47.726;3.298;2022-11-20T08:04:37;11.13;;;6.28;;
61702;SDS011;47622;47.726;3.298;2022-11-20T08:07:02;10.23;;;6.20;;
61702;SDS011;47622;47.726;3.298;2022-11-20T08:09:28;9.30;;;5.90;;
61702;SDS011;47622;47.726;3.298;2022-11-20T08:11:54;10.95;;;6.07;;
61702;SDS011;47622;47.726;3.298;2022-11-20T08:14:38;10.75;;;5.85;;
61702;SDS011;47622;47.726;3.298;2022-11-20T08:17:04;12.57;;;6.43;;
61702;SDS011;47622;47.726;3.298;2022-11-20T08:19:29;8.35;;;5.45;;
61702;SDS011;47622;47.726;3.298;2022-11-20T08:21:55;14.20;;;6.07;;
61702;SDS011;47622;47.726;3.298;2022-11-20T08:24:21;8.77;;;5.53;;
61702;SDS011;47622;47.726;3.298;2022-11-20T08:26:46;10.65;;;6.38;;
61702;SDS011;47622;47.726;3.298;2022-11-20T08:29:12;10.20;;;6.20;;
61702;SDS011;47622;47.726;3.298;2022-11-20T08:31:38;9.55;;;6.28;;
61702;SDS011;47622;47.726;3.298;2022-11-20T08:34:04;8.05;;;5.70;;
61702;SDS011;47622;47.726;3.298;2022-11-20T08:36:32;14.68;;;7.82;;
61702;SDS011;47622;47.726;3.298;2022-11-20T08:38:58;17.75;;;7.10;;
61702;SDS011;47622;47.726;3.298;2022-11-20T08:41:24;10.25;;;5.70;;
61702;SDS011;47622;47.726;3.298;2022-11-20T08:43:56;9.38;;;5.32;;
61702;SDS011;47622;47.726;3.298;2022-11-20T08:46:24;11.10;;;6.18;;
61702;SDS011;47622;47.726;3.298;2022-11-20T08:48:50;11.30;;;5.60;;
61702;SDS011;47622;47.726;3.298;2022-11-20T08:51:17;12.18;;;5.90;;
61702;SDS011;47622;47.726;3.298;2022-11-20T08:53:43;11.20;;;4.88;;
61702;SDS011;47622;47.726;3.298;2022-11-20T08:56:09;9.98;;;4.90;;
61702;SDS011;47622;47.726;3.298;2022-11-20T08:58:35;11.02;;;6.38;;
61702;SDS011;47622;47.726;3.298;2022-11-20T09:01:01;7.60;;;4.65;;
61702;SDS011;47622;47.726;3.298;2022-11-20T09:03:27;7.95;;;4.15;;
61702;SDS011;47622;47.726;3.298;2022-11-20T09:06:00;9.60;;;4.70;;
61702;SDS011;47622;47.726;3.298;2022-11-20T09:08:27;5.82;;;3.30;;
61702;SDS011;47622;47.726;3.298;2022-11-20T09:10:54;6.70;;;3.38;;
61702;SDS011;47622;47.726;3.298;2022-11-20T09:13:21;5.03;;;3.00;;
61702;SDS011;47622;47.726;3.298;2022-11-20T09:15:52;6.72;;;3.78;;
61702;SDS011;47622;47.726;3.298;2022-11-20T09:18:21;6.72;;;3.13;;
61702;SDS011;47622;47.726;3.298;2022-11-20T09:23:14;7.57;;;2.88;;
61702;SDS011;47622;47.726;3.298;2022-11-20T09:25:40;7.88;;;3.00;;
61702;SDS011;47622;47.726;3.298;2022-11-20T09:28:05;7.63;;;2.63;;
61702;SDS011;47622;47.726;3.298;2022-11-20T09:30:31;5.85;;;3.08;;
61702;SDS011;47622;47.726;3.298;2022-11-20T09:32:57;5.75;;;2.90;;
61702;SDS011;47622;47.726;3.298;2022-11-20T09:35:22;5.05;;;2.70;;
61702;SDS011;47622;47.726;3.298;2022-11-20T09:37:48;6.95;;;2.72;;
61702;SDS011;47622;47.726;3.298;2022-11-20T09:40:19;7.35;;;3.33;;
61702;SDS011;47622;47.726;3.298;2022-11-20T09:42:53;9.40;;;3.03;;
61702;SDS011;47622;47.726;3.298;2022-11-20T09:48:14;6.78;;;2.50;;
61702;SDS011;47622;47.726;3.298;2022-11-20T09:55:56;8.45;;;2.40;;
61702;SDS011;47622;47.726;3.298;2022-11-20T09:58:31;3.88;;;2.17;;
61702;SDS011;47622;47.726;3.298;2022-11-20T10:01:11;4.25;;;1.95;;
61702;SDS011;47622;47.726;3.298;2022-11-20T10:03:59;5.00;;;2.45;;
61702;SDS011;47622;47.726;3.298;2022-11-20T10:06:30;6.22;;;2.17;;
61702;SDS011;47622;47.726;3.298;2022-11-20T10:09:59;4.82;;;2.20;;
61702;SDS011;47622;47.726;3.298;2022-11-20T10:17:38;5.65;;;2.38;;
61702;SDS011;47622;47.726;3.298;2022-11-20T10:23:03;6.93;;;2.42;;
61702;SDS011;47622;47.726;3.298;2022-11-20T10:31:14;3.55;;;2.05;;
61702;SDS011;47622;47.726;3.298;2022-11-20T10:33:48;5.00;;;1.90;;
61702;SDS011;47622;47.726;3.298;2022-11-20T10:36:27;8.68;;;2.30;;
61702;SDS011;47622;47.726;3.298;2022-11-20T10:39:04;5.32;;;1.88;;
61702;SDS011;47622;47.726;3.298;2022-11-20T10:41:42;4.88;;;2.85;;
61702;SDS011;47622;47.726;3.298;2022-11-20T10:44:26;7.88;;;2.13;;
61702;SDS011;47622;47.726;3.298;2022-11-20T10:47:15;4.10;;;1.73;;
61702;SDS011;47622;47.726;3.298;2022-11-20T10:49:43;4.00;;;2.15;;
61702;SDS011;47622;47.726;3.298;2022-11-20T10:52:25;4.57;;;2.28;;
61702;SDS011;47622;47.726;3.298;2022-11-20T11:00:12;5.90;;;1.80;;
61702;SDS011;47622;47.726;3.298;2022-11-20T11:02:42;4.90;;;1.90;;
61702;SDS011;47622;47.726;3.298;2022-11-20T11:08:01;4.22;;;1.83;;
61702;SDS011;47622;47.726;3.298;2022-11-20T11:10:36;5.90;;;2.00;;
61702;SDS011;47622;47.726;3.298;2022-11-20T11:13:07;6.65;;;2.13;;
61702;SDS011;47622;47.726;3.298;2022-11-20T11:15:54;7.13;;;2.03;;
61702;SDS011;47622;47.726;3.298;2022-11-20T11:18:29;6.32;;;1.92;;
61702;SDS011;47622;47.726;3.298;2022-11-20T11:20:57;7.43;;;3.05;;
61702;SDS011;47622;47.726;3.298;2022-11-20T11:23:34;5.25;;;1.95;;
61702;SDS011;47622;47.726;3.298;2022-11-20T11:26:02;7.10;;;2.22;;
61702;SDS011;47622;47.726;3.298;2022-11-20T11:28:31;5.38;;;2.08;;
61702;SDS011;47622;47.726;3.298;2022-11-20T11:30:57;7.13;;;2.45;;
61702;SDS011;47622;47.726;3.298;2022-11-20T11:33:23;9.63;;;2.35;;
61702;SDS011;47622;47.726;3.298;2022-11-20T11:35:55;4.00;;;2.10;;
61702;SDS011;47622;47.726;3.298;2022-11-20T11:38:41;9.10;;;2.20;;
61702;SDS011;47622;47.726;3.298;2022-11-20T11:41:22;4.13;;;2.30;;
61702;SDS011;47622;47.726;3.298;2022-11-20T11:46:40;3.78;;;2.63;;
61702;SDS011;47622;47.726;3.298;2022-11-20T11:49:18;7.65;;;2.58;;
61702;SDS011;47622;47.726;3.298;2022-11-20T11:57:29;3.67;;;2.05;;
61702;SDS011;47622;47.726;3.298;2022-11-20T12:00:11;3.72;;;2.10;;
61702;SDS011;47622;47.726;3.298;2022-11-20T12:16:30;3.38;;;1.90;;
61702;SDS011;47622;47.726;3.298;2022-11-20T12:19:00;4.47;;;2.05;;
61702;SDS011;47622;47.726;3.298;2022-11-20T12:29:40;4.60;;;2.00;;
61702;SDS011;47622;47.726;3.298;2022-11-20T12:50:08;7.97;;;1.90;;
61702;SDS011;47622;47.726;3.298;2022-11-20T13:06:08;4.47;;;2.03;;
61702;SDS011;47622;47.726;3.298;2022-11-20T13:08:41;7.30;;;2.25;;
61702;SDS011;47622;47.726;3.298;2022-11-20T13:16:36;6.65;;;1.95;;
61702;SDS011;47622;47.726;3.298;2022-11-20T13:19:09;7.85;;;2.38;;
61702;SDS011;47622;47.726;3.298;2022-11-20T13:21:47;5.35;;;2.13;;
61702;SDS011;47622;47.726;3.298;2022-11-20T13:27:16;5.15;;;2.38;;
61702;SDS011;47622;47.726;3.298;2022-11-20T13:29:45;6.20;;;2.38;;
61702;SDS011;47622;47.726;3.298;2022-11-20T13:34:38;5.15;;;2.60;;
61702;SDS011;47622;47.726;3.298;2022-11-20T13:37:05;6.35;;;2.20;;
61702;SDS011;47622;47.726;3.298;2022-11-20T13:39:32;6.55;;;2.33;;
61702;SDS011;47622;47.726;3.298;2022-11-20T13:42:00;3.85;;;2.33;;
61702;SDS011;47622;47.726;3.298;2022-11-20T13:47:02;5.47;;;2.47;;
61702;SDS011;47622;47.726;3.298;2022-11-20T13:52:47;5.03;;;2.00;;
61702;SDS011;47622;47.726;3.298;2022-11-20T14:00:24;4.72;;;2.00;;
61702;SDS011;47622;47.726;3.298;2022-11-20T14:03:01;4.28;;;2.05;;
61702;SDS011;47622;47.726;3.298;2022-11-20T14:05:38;3.67;;;2.03;;
61702;SDS011;47622;47.726;3.298;2022-11-20T14:08:14;4.00;;;2.00;;
61702;SDS011;47622;47.726;3.298;2022-11-20T14:10:49;7.53;;;2.10;;
61702;SDS011;47622;47.726;3.298;2022-11-20T14:13:18;5.22;;;2.10;;
61702;SDS011;47622;47.726;3.298;2022-11-20T14:15:45;3.15;;;2.30;;
61702;SDS011;47622;47.726;3.298;2022-11-20T14:18:13;3.30;;;1.83;;
61702;SDS011;47622;47.726;3.298;2022-11-20T14:20:50;2.80;;;1.80;;
61702;SDS011;47622;47.726;3.298;2022-11-20T14:23:26;4.65;;;1.85;;
61702;SDS011;47622;47.726;3.298;2022-11-20T14:25:53;3.72;;;1.85;;
61702;SDS011;47622;47.726;3.298;2022-11-20T14:28:21;4.78;;;2.10;;
61702;SDS011;47622;47.726;3.298;2022-11-20T14:30:51;2.58;;;1.88;;
61702;SDS011;47622;47.726;3.298;2022-11-20T14:33:17;4.20;;;1.70;;
61702;SDS011;47622;47.726;3.298;2022-11-20T14:35:45;2.63;;;1.58;;
61702;SDS011;47622;47.726;3.298;2022-11-20T14:38:21;4.30;;;1.73;;
61702;SDS011;47622;47.726;3.298;2022-11-20T14:40:50;4.38;;;1.70;;
61702;SDS011;47622;47.726;3.298;2022-11-20T14:45:58;2.78;;;1.67;;
61702;SDS011;47622;47.726;3.298;2022-11-20T14:48:34;2.38;;;1.50;;
61702;SDS011;47622;47.726;3.298;2022-11-20T14:51:04;2.92;;;1.48;;
61702;SDS011;47622;47.726;3.298;2022-11-20T14:53:30;5.22;;;1.55;;
61702;SDS011;47622;47.726;3.298;2022-11-20T14:55:57;1.30;;;1.20;;
61702;SDS011;47622;47.726;3.298;2022-11-20T14:58:25;1.55;;;1.45;;
61702;SDS011;47622;47.726;3.298;2022-11-20T15:00:56;2.13;;;1.30;;
61702;SDS011;47622;47.726;3.298;2022-11-20T15:03:33;1.98;;;1.23;;
61702;SDS011;47622;47.726;3.298;2022-11-20T15:06:07;2.80;;;1.10;;
61702;SDS011;47622;47.726;3.298;2022-11-20T15:11:02;2.80;;;1.15;;
61702;SDS011;47622;47.726;3.298;2022-11-20T15:15:58;1.48;;;1.20;;
61702;SDS011;47622;47.726;3.298;2022-11-20T15:18:28;1.02;;;0.93;;
61702;SDS011;47622;47.726;3.298;2022-11-20T15:20:56;1.30;;;1.20;;
61702;SDS011;47622;47.726;3.298;2022-11-20T15:23:24;1.52;;;1.20;;
61702;SDS011;47622;47.726;3.298;2022-11-20T15:25:51;1.08;;;1.05;;
61702;SDS011;47622;47.726;3.298;2022-11-20T15:28:30;1.00;;;1.00;;
61702;SDS011;47622;47.726;3.298;2022-11-20T15:31:02;1.20;;;1.10;;
61702;SDS011;47622;47.726;3.298;2022-11-20T15:33:28;2.17;;;1.20;;
61702;SDS011;47622;47.726;3.298;2022-11-20T15:35:54;1.42;;;1.25;;
61702;SDS011;47622;47.726;3.298;2022-11-20T15:38:20;1.75;;;1.20;;
61702;SDS011;47622;47.726;3.298;2022-11-20T15:40:45;3.67;;;1.85;;
61702;SDS011;47622;47.726;3.298;2022-11-20T15:43:11;4.20;;;1.88;;
61702;SDS011;47622;47.726;3.298;2022-11-20T15:48:23;3.85;;;1.90;;
61702;SDS011;47622;47.726;3.298;2022-11-20T15:50:54;4.05;;;2.45;;
61702;SDS011;47622;47.726;3.298;2022-11-20T15:53:23;3.75;;;1.52;;
61702;SDS011;47622;47.726;3.298;2022-11-20T15:55:49;3.45;;;2.00;;
61702;SDS011;47622;47.726;3.298;2022-11-20T15:58:15;3.40;;;2.20;;
61702;SDS011;47622;47.726;3.298;2022-11-20T16:00:42;3.47;;;1.80;;
61702;SDS011;47622;47.726;3.298;2022-11-20T16:03:14;5.03;;;2.08;;
61702;SDS011;47622;47.726;3.298;2022-11-20T16:05:41;2.20;;;1.73;;
61702;SDS011;47622;47.726;3.298;2022-11-20T16:08:07;4.30;;;2.00;;
61702;SDS011;47622;47.726;3.298;2022-11-20T16:10:32;3.05;;;1.90;;
61702;SDS011;47622;47.726;3.298;2022-11-20T16:12:58;7.25;;;2.13;;
61702;SDS011;47622;47.726;3.298;2022-11-20T16:15:43;6.55;;;2.30;;
61702;SDS011;47622;47.726;3.298;2022-11-20T16:18:16;4.78;;;2.17;;
61702;SDS011;47622;47.726;3.298;2022-11-20T16:20:49;2.38;;;2.00;;
61702;SDS011;47622;47.726;3.298;2022-11-20T16:23:16;5.18;;;2.10;;
61702;SDS011;47622;47.726;3.298;2022-11-20T16:25:42;7.72;;;2.47;;
61702;SDS011;47622;47.726;3.298;2022-11-20T16:28:08;6.13;;;2.38;;
61702;SDS011;47622;47.726;3.298;2022-11-20T16:30:35;6.55;;;2.65;;
61702;SDS011;47622;47.726;3.298;2022-11-20T16:33:01;8.07;;;2.88;;
61702;SDS011;47622;47.726;3.298;2022-11-20T16:35:28;6.82;;;2.30;;
61702;SDS011;47622;47.726;3.298;2022-11-20T16:37:55;4.72;;;2.30;;
61702;SDS011;47622;47.726;3.298;2022-11-20T16:40:21;5.82;;;2.38;;
61702;SDS011;47622;47.726;3.298;2022-11-20T16:42:49;5.43;;;2.10;;
61702;SDS011;47622;47.726;3.298;2022-11-20T16:45:15;4.25;;;2.30;;
61702;SDS011;47622;47.726;3.298;2022-11-20T16:47:41;5.35;;;2.47;;
61702;SDS011;47622;47.726;3.298;2022-11-20T16:50:06;8.35;;;2.97;;
61702;SDS011;47622;47.726;3.298;2022-11-20T16:52:33;13.10;;;3.20;;
61702;SDS011;47622;47.726;3.298;2022-11-20T16:54:59;9.00;;;2.72;;
61702;SDS011;47622;47.726;3.298;2022-11-20T16:57:26;9.38;;;2.97;;
61702;SDS011;47622;47.726;3.298;2022-11-20T16:59:54;7.72;;;2.70;;
61702;SDS011;47622;47.726;3.298;2022-11-20T17:02:19;7.45;;;2.67;;
61702;SDS011;47622;47.726;3.298;2022-11-20T17:04:45;5.78;;;2.90;;
61702;SDS011;47622;47.726;3.298;2022-11-20T17:07:11;9.55;;;3.22;;
61702;SDS011;47622;47.726;3.298;2022-11-20T17:09:37;12.93;;;3.63;;
61702;SDS011;47622;47.726;3.298;2022-11-20T17:12:03;13.45;;;4.28;;
61702;SDS011;47622;47.726;3.298;2022-11-20T17:14:29;7.13;;;2.95;;